createdAt,value
2017-11-09T00:00:35.529Z,6.70
2017-11-09T00:01:42.922Z,7.50
2017-11-09T00:02:50.990Z,6.43
2017-11-09T00:03:58.753Z,7.20
2017-11-09T00:05:06.124Z,6.97
2017-11-09T00:06:13.386Z,7.07
2017-11-09T00:07:14.670Z,7.20
2017-11-09T00:08:15.984Z,7.13
2017-11-09T00:09:17.341Z,7.10
2017-11-09T00:10:18.640Z,6.90
2017-11-09T00:11:19.986Z,6.90
2017-11-09T00:12:21.274Z,6.50
2017-11-09T00:13:22.589Z,6.70
2017-11-09T00:14:24.214Z,7.00
2017-11-09T00:15:25.536Z,6.78
2017-11-09T00:16:26.876Z,7.22
2017-11-09T00:17:28.176Z,7.00
2017-11-09T00:18:30.241Z,8.10
2017-11-09T00:19:32.852Z,12.05
2017-11-09T00:20:34.180Z,10.10
2017-11-09T00:21:35.505Z,10.53
2017-11-09T00:22:36.787Z,10.60
2017-11-09T00:23:38.094Z,9.83
2017-11-09T00:24:39.408Z,9.57
2017-11-09T00:25:41.460Z,9.15
2017-11-09T00:26:43.518Z,9.10
2017-11-09T00:27:44.831Z,8.33
2017-11-09T00:28:46.897Z,8.90
2017-11-09T00:29:49.302Z,7.70
2017-11-09T00:30:50.621Z,8.80
2017-11-09T00:31:51.927Z,7.73
2017-11-09T00:32:53.302Z,8.93
2017-11-09T00:33:54.618Z,8.10
2017-11-09T00:34:56.932Z,8.87
2017-11-09T00:35:58.224Z,8.00
2017-11-09T00:37:00.257Z,7.70
2017-11-09T00:38:01.562Z,7.90
2017-11-09T00:39:03.011Z,8.00
2017-11-09T00:40:05.451Z,7.70
2017-11-09T00:41:06.759Z,6.73
2017-11-09T00:42:08.830Z,7.63
2017-11-09T00:43:10.146Z,7.20
2017-11-09T00:44:12.201Z,7.70
2017-11-09T00:45:14.496Z,6.83
2017-11-09T00:46:15.802Z,8.27
2017-11-09T00:47:17.858Z,7.00
2017-11-09T00:48:19.927Z,7.57
2017-11-09T00:49:21.235Z,6.73
2017-11-09T00:50:23.593Z,6.37
2017-11-09T00:51:24.875Z,6.77
2017-11-09T00:52:26.176Z,6.10
2017-11-09T00:53:28.225Z,6.30
2017-11-09T00:54:29.528Z,5.57
2017-11-09T00:55:31.862Z,6.00
2017-11-09T00:56:33.167Z,6.13
2017-11-09T00:57:35.226Z,6.20
2017-11-09T00:58:37.274Z,6.10
2017-11-09T00:59:38.661Z,6.03
2017-11-09T01:00:40.276Z,7.03
2017-11-09T01:01:42.317Z,6.17
2017-11-09T01:02:44.473Z,7.10
2017-11-09T01:03:46.525Z,6.40
2017-11-09T01:04:47.812Z,6.47
2017-11-09T01:05:49.437Z,6.30
2017-11-09T01:06:50.742Z,6.20
2017-11-09T01:07:52.038Z,6.23
2017-11-09T01:08:53.337Z,6.07
2017-11-09T01:09:54.642Z,6.20
2017-11-09T01:10:56.299Z,5.77
2017-11-09T01:11:57.590Z,5.90
2017-11-09T01:12:58.915Z,6.50
2017-11-09T01:14:00.246Z,6.23
2017-11-09T01:15:01.733Z,6.50
2017-11-09T01:16:03.473Z,6.20
2017-11-09T01:17:04.771Z,5.77
2017-11-09T01:18:06.096Z,5.40
2017-11-09T01:19:08.137Z,5.80
2017-11-09T01:20:10.173Z,5.90
2017-11-09T01:21:11.788Z,5.90
2017-11-09T01:22:13.088Z,5.60
2017-11-09T01:23:15.133Z,6.10
2017-11-09T01:24:17.185Z,6.27
2017-11-09T01:25:19.213Z,5.73
2017-11-09T01:26:20.949Z,5.83
2017-11-09T01:27:22.244Z,5.47
2017-11-09T01:28:23.541Z,5.63
2017-11-09T01:29:24.840Z,5.37
2017-11-09T01:30:26.169Z,6.20
2017-11-09T01:31:27.773Z,5.83
2017-11-09T01:32:29.086Z,5.43
2017-11-09T01:33:30.461Z,5.50
2017-11-09T01:34:32.509Z,5.63
2017-11-09T01:35:33.828Z,5.40
2017-11-09T01:36:35.165Z,6.20
2017-11-09T01:37:36.721Z,5.73
2017-11-09T01:38:38.050Z,6.00
2017-11-09T01:39:39.380Z,5.77
2017-11-09T01:40:40.677Z,5.93
2017-11-09T01:41:42.237Z,6.00
2017-11-09T01:42:43.579Z,5.77
2017-11-09T01:43:44.910Z,5.83
2017-11-09T01:44:46.217Z,6.27
2017-11-09T01:45:47.533Z,5.70
2017-11-09T01:46:50.156Z,5.30
2017-11-09T01:47:51.447Z,5.40
2017-11-09T01:48:53.528Z,5.60
2017-11-09T01:49:54.845Z,5.57
2017-11-09T01:50:56.886Z,5.87
2017-11-09T01:51:58.624Z,5.97
2017-11-09T01:52:59.933Z,5.83
2017-11-09T01:54:01.233Z,5.80
2017-11-09T01:55:03.309Z,6.17
2017-11-09T01:56:06.924Z,5.65
2017-11-09T01:57:08.658Z,5.20
2017-11-09T01:58:10.000Z,5.60
2017-11-09T01:59:12.100Z,5.37
2017-11-09T02:00:13.408Z,5.82
2017-11-09T02:01:14.742Z,5.93
2017-11-09T02:02:16.480Z,5.20
2017-11-09T02:03:17.787Z,5.60
2017-11-09T02:04:19.101Z,5.80
2017-11-09T02:05:20.413Z,6.17
2017-11-09T02:06:21.722Z,5.63
2017-11-09T02:07:23.369Z,5.50
2017-11-09T02:08:24.713Z,5.30
2017-11-09T02:09:26.049Z,5.13
2017-11-09T02:10:27.355Z,5.67
2017-11-09T02:11:29.412Z,5.60
2017-11-09T02:12:31.088Z,5.93
2017-11-09T02:13:32.417Z,5.73
2017-11-09T02:14:33.724Z,5.80
2017-11-09T02:15:35.772Z,5.73
2017-11-09T02:16:37.120Z,5.77
2017-11-09T02:17:39.500Z,6.10
2017-11-09T02:18:40.830Z,5.63
2017-11-09T02:19:42.886Z,5.17
2017-11-09T02:20:44.233Z,5.67
2017-11-09T02:21:45.578Z,5.73
2017-11-09T02:22:47.245Z,5.70
2017-11-09T02:23:48.593Z,5.30
2017-11-09T02:24:49.930Z,5.40
2017-11-09T02:25:51.277Z,6.10
2017-11-09T02:26:52.643Z,5.77
2017-11-09T02:27:55.162Z,6.20
2017-11-09T02:28:56.512Z,5.40
2017-11-09T02:29:57.836Z,5.27
2017-11-09T02:30:59.169Z,5.60
2017-11-09T02:32:00.499Z,5.00
2017-11-09T02:33:01.937Z,5.73
2017-11-09T02:34:03.354Z,5.20
2017-11-09T02:35:04.738Z,4.97
2017-11-09T02:36:06.813Z,5.53
2017-11-09T02:37:08.172Z,5.53
2017-11-09T02:38:09.794Z,5.37
2017-11-09T02:39:11.095Z,5.77
2017-11-09T02:40:12.417Z,5.37
2017-11-09T02:41:13.749Z,5.57
2017-11-09T02:42:15.812Z,5.27
2017-11-09T02:43:17.426Z,5.37
2017-11-09T02:44:18.762Z,5.30
2017-11-09T02:45:20.093Z,5.07
2017-11-09T02:46:21.457Z,5.43
2017-11-09T02:47:23.515Z,5.30
2017-11-09T02:48:25.920Z,6.07
2017-11-09T02:49:27.236Z,5.33
2017-11-09T02:50:28.564Z,5.80
2017-11-09T02:51:29.910Z,5.30
2017-11-09T02:52:31.255Z,5.50
2017-11-09T02:53:32.915Z,5.87
2017-11-09T02:54:34.210Z,5.77
2017-11-09T02:55:36.284Z,5.13
2017-11-09T02:56:37.633Z,5.43
2017-11-09T02:57:38.988Z,5.70
2017-11-09T02:58:40.466Z,4.93
2017-11-09T02:59:41.799Z,5.20
2017-11-09T03:00:43.140Z,4.93
2017-11-09T03:01:44.474Z,4.43
2017-11-09T03:02:45.798Z,4.93
2017-11-09T03:03:47.400Z,5.20
2017-11-09T03:04:48.691Z,4.97
2017-11-09T03:05:50.053Z,4.83
2017-11-09T03:06:52.109Z,5.33
2017-11-09T03:07:54.158Z,5.10
2017-11-09T03:08:56.678Z,5.07
2017-11-09T03:09:58.001Z,5.45
2017-11-09T03:10:59.321Z,5.90
2017-11-09T03:12:01.385Z,5.55
2017-11-09T03:13:02.700Z,5.55
2017-11-09T03:14:05.116Z,5.60
2017-11-09T03:15:06.428Z,5.57
2017-11-09T03:16:07.728Z,5.40
2017-11-09T03:17:09.032Z,5.17
2017-11-09T03:18:10.353Z,5.23
2017-11-09T03:19:11.936Z,5.33
2017-11-09T03:20:13.235Z,5.53
2017-11-09T03:21:14.537Z,5.80
2017-11-09T03:22:16.587Z,6.17
2017-11-09T03:23:18.649Z,5.50
2017-11-09T03:24:21.442Z,5.60
2017-11-09T03:25:22.769Z,5.80
2017-11-09T03:26:24.827Z,6.00
2017-11-09T03:27:26.129Z,5.10
2017-11-09T03:28:27.438Z,5.77
2017-11-09T03:29:29.017Z,5.47
2017-11-09T03:30:30.333Z,5.63
2017-11-09T03:31:31.651Z,5.20
2017-11-09T03:32:32.985Z,5.83
2017-11-09T03:33:34.304Z,5.73
2017-11-09T03:34:35.917Z,5.57
2017-11-09T03:35:37.226Z,5.40
2017-11-09T03:36:38.554Z,4.90
2017-11-09T03:37:39.875Z,5.20
2017-11-09T03:38:41.194Z,5.37
2017-11-09T03:39:42.784Z,4.60
2017-11-09T03:40:44.116Z,5.50
2017-11-09T03:41:45.432Z,5.70
2017-11-09T03:42:46.809Z,5.83
2017-11-09T03:43:48.118Z,5.77
2017-11-09T03:44:49.767Z,5.80
2017-11-09T03:45:51.082Z,5.30
2017-11-09T03:46:52.409Z,5.57
2017-11-09T03:47:53.738Z,5.43
2017-11-09T03:48:55.779Z,5.13
2017-11-09T03:49:57.352Z,5.40
2017-11-09T03:50:58.665Z,5.43
2017-11-09T03:52:00.697Z,5.77
2017-11-09T03:53:02.004Z,5.37
2017-11-09T03:54:03.420Z,5.40
2017-11-09T03:55:05.130Z,5.10
2017-11-09T03:56:11.037Z,5.47
2017-11-09T03:57:12.353Z,5.10
2017-11-09T03:58:13.663Z,5.90
2017-11-09T03:59:14.976Z,5.13
2017-11-09T04:00:16.656Z,5.00
2017-11-09T04:01:18.681Z,4.67
2017-11-09T04:02:20.024Z,5.03
2017-11-09T04:03:21.336Z,4.67
2017-11-09T04:04:22.641Z,5.13
2017-11-09T04:05:24.263Z,4.90
2017-11-09T04:06:26.334Z,5.60
2017-11-09T04:07:27.653Z,5.30
2017-11-09T04:08:29.698Z,5.50
2017-11-09T04:09:31.005Z,5.77
2017-11-09T04:10:32.634Z,5.67
2017-11-09T04:11:33.932Z,5.57
2017-11-09T04:12:35.982Z,5.90
2017-11-09T04:13:38.061Z,5.43
2017-11-09T04:14:39.362Z,5.43
2017-11-09T04:15:41.222Z,5.77
2017-11-09T04:16:42.562Z,5.63
2017-11-09T04:17:43.877Z,6.20
2017-11-09T04:18:45.177Z,5.60
2017-11-09T04:19:46.469Z,5.67
2017-11-09T04:20:48.041Z,5.50
2017-11-09T04:21:50.081Z,5.37
2017-11-09T04:22:52.148Z,5.27
2017-11-09T04:23:54.215Z,5.33
2017-11-09T04:24:55.519Z,5.00
2017-11-09T04:25:57.110Z,5.80
2017-11-09T04:26:58.409Z,5.87
2017-11-09T04:28:00.444Z,5.83
2017-11-09T04:29:01.737Z,5.97
2017-11-09T04:30:03.061Z,6.50
2017-11-09T04:31:04.821Z,6.50
2017-11-09T04:32:06.138Z,6.13
2017-11-09T04:33:08.225Z,5.37
2017-11-09T04:34:09.545Z,5.60
2017-11-09T04:35:10.885Z,5.83
2017-11-09T04:36:12.511Z,6.00
2017-11-09T04:37:14.565Z,5.53
2017-11-09T04:38:16.619Z,5.27
2017-11-09T04:39:18.672Z,5.73
2017-11-09T04:40:20.722Z,5.63
2017-11-09T04:41:23.038Z,5.30
2017-11-09T04:42:24.365Z,6.00
2017-11-09T04:43:25.709Z,5.33
2017-11-09T04:44:27.015Z,6.27
2017-11-09T04:45:29.058Z,5.20
2017-11-09T04:46:31.463Z,5.83
2017-11-09T04:47:32.756Z,5.97
2017-11-09T04:48:34.805Z,5.70
2017-11-09T04:49:36.114Z,5.57
2017-11-09T04:50:37.438Z,5.57
2017-11-09T04:51:39.088Z,6.27
2017-11-09T04:52:40.397Z,5.77
2017-11-09T04:53:41.697Z,5.90
2017-11-09T04:54:43.021Z,5.00
2017-11-09T04:55:44.317Z,5.50
2017-11-09T04:56:45.977Z,5.83
2017-11-09T04:57:47.279Z,5.53
2017-11-09T04:58:49.319Z,5.23
2017-11-09T04:59:51.352Z,5.97
2017-11-09T05:00:52.686Z,4.87
2017-11-09T05:01:54.293Z,4.83
2017-11-09T05:02:55.621Z,4.87
2017-11-09T05:03:56.930Z,5.17
2017-11-09T05:04:59.037Z,4.50
2017-11-09T05:06:00.371Z,7.57
2017-11-09T05:07:02.041Z,13.47
2017-11-09T05:08:03.353Z,29.83
2017-11-09T05:09:04.703Z,26.87
2017-11-09T05:11:13.100Z,30.67
2017-11-09T05:12:14.670Z,36.97
2017-11-09T05:13:15.979Z,32.77
2017-11-09T05:14:17.284Z,30.40
2017-11-09T05:15:19.334Z,32.30
2017-11-09T05:16:21.380Z,30.83
2017-11-09T05:17:23.002Z,25.13
2017-11-09T05:18:24.321Z,22.90
2017-11-09T05:19:25.624Z,25.20
2017-11-09T05:20:27.662Z,25.47
2017-11-09T05:21:29.729Z,23.57
2017-11-09T05:22:31.804Z,18.23
2017-11-09T05:23:33.122Z,12.30
2017-11-09T05:24:35.169Z,10.33
2017-11-09T05:25:37.218Z,9.17
2017-11-09T05:26:38.520Z,13.17
2017-11-09T05:27:40.714Z,14.27
2017-11-09T05:28:42.049Z,10.93
2017-11-09T05:29:43.356Z,10.97
2017-11-09T05:30:44.707Z,18.73
2017-11-09T05:31:46.021Z,18.53
2017-11-09T05:32:47.661Z,17.37
2017-11-09T05:33:48.969Z,13.50
2017-11-09T05:34:50.295Z,7.57
2017-11-09T05:35:52.387Z,5.93
2017-11-09T05:36:53.711Z,5.30
2017-11-09T05:37:55.069Z,5.10
2017-11-09T05:38:56.382Z,5.10
2017-11-09T05:39:57.692Z,4.87
2017-11-09T05:40:59.009Z,5.17
2017-11-09T05:42:00.338Z,5.33
2017-11-09T05:43:01.942Z,5.17
2017-11-09T05:44:03.276Z,4.50
2017-11-09T05:45:04.592Z,4.57
2017-11-09T05:46:05.908Z,5.70
2017-11-09T05:47:07.208Z,4.97
2017-11-09T05:48:08.537Z,5.40
2017-11-09T05:49:09.850Z,5.00
2017-11-09T05:50:11.929Z,4.90
2017-11-09T05:51:13.247Z,4.87
2017-11-09T05:52:15.297Z,5.30
2017-11-09T05:53:18.008Z,4.57
2017-11-09T05:54:19.305Z,4.90
2017-11-09T05:55:21.397Z,4.70
2017-11-09T05:56:22.733Z,4.67
2017-11-09T05:57:24.050Z,5.07
2017-11-09T05:58:26.546Z,5.13
2017-11-09T05:59:27.884Z,4.87
2017-11-09T06:00:29.242Z,4.93
2017-11-09T06:01:31.326Z,4.90
2017-11-09T06:02:32.663Z,5.27
2017-11-09T06:03:34.356Z,4.97
2017-11-09T06:04:35.683Z,4.90
2017-11-09T06:05:37.017Z,5.13
2017-11-09T06:06:38.355Z,4.50
2017-11-09T06:07:39.718Z,5.13
2017-11-09T06:08:41.093Z,4.83
2017-11-09T06:09:49.185Z,5.63
2017-11-09T06:10:50.500Z,4.93
2017-11-09T06:11:51.832Z,4.83
2017-11-09T06:12:53.155Z,5.03
2017-11-09T06:13:54.517Z,5.40
2017-11-09T06:14:55.836Z,5.33
2017-11-09T06:15:57.166Z,5.47
2017-11-09T06:16:58.507Z,5.27
2017-11-09T06:17:59.817Z,5.10
2017-11-09T06:19:01.907Z,5.37
2017-11-09T06:20:03.272Z,4.60
2017-11-09T06:21:04.649Z,4.77
2017-11-09T06:22:06.705Z,4.77
2017-11-09T06:23:09.061Z,4.87
2017-11-09T06:24:11.342Z,5.77
2017-11-09T06:25:12.670Z,5.50
2017-11-09T06:26:14.737Z,4.80
2017-11-09T06:27:16.073Z,5.07
2017-11-09T06:28:17.392Z,4.73
2017-11-09T06:29:19.479Z,4.63
2017-11-09T06:30:20.795Z,4.43
2017-11-09T06:31:22.856Z,4.90
2017-11-09T06:32:24.917Z,4.50
2017-11-09T06:33:26.230Z,4.30
2017-11-09T06:34:29.182Z,4.57
2017-11-09T06:35:30.513Z,4.23
2017-11-09T06:36:32.638Z,4.37
2017-11-09T06:37:33.931Z,4.30
2017-11-09T06:38:36.177Z,4.20
2017-11-09T06:39:37.760Z,4.70
2017-11-09T06:40:39.385Z,4.10
2017-11-09T06:41:41.825Z,4.30
2017-11-09T06:42:44.022Z,4.40
2017-11-09T06:43:46.147Z,4.30
2017-11-09T06:44:47.916Z,4.70
2017-11-09T06:45:50.090Z,4.40
2017-11-09T06:46:51.552Z,5.13
2017-11-09T06:47:52.961Z,5.40
2017-11-09T06:48:55.133Z,5.27
2017-11-09T06:49:56.997Z,4.03
2017-11-09T06:50:58.486Z,5.07
2017-11-09T06:51:59.946Z,4.73
2017-11-09T06:53:02.082Z,4.50
2017-11-09T06:54:04.106Z,4.53
2017-11-09T06:55:05.880Z,4.33
2017-11-09T06:56:07.260Z,4.53
2017-11-09T06:57:09.401Z,3.93
2017-11-09T06:58:13.154Z,4.53
2017-11-09T06:59:14.762Z,3.97
2017-11-09T07:00:16.539Z,4.15
2017-11-09T07:01:17.927Z,4.07
2017-11-09T07:02:20.008Z,4.03
2017-11-09T07:03:21.424Z,4.50
2017-11-09T07:04:22.860Z,4.15
2017-11-09T07:05:24.589Z,5.33
2017-11-09T07:06:26.117Z,5.00
2017-11-09T07:07:27.609Z,3.73
2017-11-09T07:08:29.773Z,4.40
2017-11-09T07:09:31.198Z,4.43
2017-11-09T07:10:33.589Z,4.13
2017-11-09T07:11:34.927Z,4.97
2017-11-09T07:12:36.271Z,4.80
2017-11-09T07:13:37.604Z,4.50
2017-11-09T07:14:38.968Z,4.43
2017-11-09T07:15:40.769Z,4.30
2017-11-09T07:16:42.841Z,4.77
2017-11-09T07:17:44.168Z,4.97
2017-11-09T07:18:46.226Z,4.50
2017-11-09T07:19:47.561Z,4.67
2017-11-09T07:20:49.649Z,4.27
2017-11-09T07:21:50.988Z,4.70
2017-11-09T07:22:52.300Z,4.77
2017-11-09T07:23:54.385Z,4.73
2017-11-09T07:24:55.677Z,4.50
2017-11-09T07:25:57.995Z,5.10
2017-11-09T07:26:59.339Z,5.37
2017-11-09T07:28:00.683Z,5.20
2017-11-09T07:29:02.015Z,5.03
2017-11-09T07:30:03.370Z,5.10
2017-11-09T07:31:04.744Z,5.10
2017-11-09T07:32:06.094Z,5.13
2017-11-09T07:33:07.437Z,5.20
2017-11-09T07:34:08.781Z,4.90
2017-11-09T07:35:10.126Z,4.47
2017-11-09T07:36:11.826Z,4.47
2017-11-09T07:37:13.889Z,3.90
2017-11-09T07:38:15.945Z,3.23
2017-11-09T07:39:17.266Z,3.70
2017-11-09T07:40:18.592Z,3.83
2017-11-09T07:41:19.931Z,3.67
2017-11-09T07:42:21.237Z,4.00
2017-11-09T07:43:22.554Z,3.27
2017-11-09T07:44:23.866Z,4.30
2017-11-09T07:45:25.936Z,4.20
2017-11-09T07:46:28.053Z,3.40
2017-11-09T07:47:29.357Z,3.90
2017-11-09T07:48:30.673Z,3.47
2017-11-09T07:49:31.976Z,3.63
2017-11-09T07:50:33.277Z,3.10
2017-11-09T07:51:34.761Z,3.47
2017-11-09T07:52:36.062Z,3.60
2017-11-09T07:53:38.139Z,3.33
2017-11-09T07:54:39.459Z,3.27
2017-11-09T07:55:40.774Z,3.00
2017-11-09T07:56:42.131Z,3.23
2017-11-09T07:57:43.454Z,3.53
2017-11-09T07:58:44.763Z,3.33
2017-11-09T07:59:46.817Z,3.13
2017-11-09T08:00:48.862Z,2.90
2017-11-09T08:01:51.227Z,3.20
2017-11-09T08:02:53.278Z,3.17
2017-11-09T08:03:55.326Z,3.60
2017-11-09T08:04:56.636Z,3.33
2017-11-09T08:05:57.971Z,3.40
2017-11-09T08:06:59.606Z,3.30
2017-11-09T08:08:00.968Z,3.40
2017-11-09T08:09:02.290Z,3.10
2017-11-09T08:10:03.638Z,3.00
2017-11-09T08:11:04.952Z,3.30
2017-11-09T08:12:06.612Z,3.60
2017-11-09T08:13:07.925Z,3.57
2017-11-09T08:14:09.308Z,3.40
2017-11-09T08:15:10.650Z,3.80
2017-11-09T08:16:11.963Z,3.40
2017-11-09T08:17:13.560Z,3.90
2017-11-09T08:18:15.606Z,3.70
2017-11-09T08:19:17.666Z,3.25
2017-11-09T08:20:19.768Z,3.25
2017-11-09T08:21:21.089Z,4.68
2017-11-09T08:22:22.753Z,3.83
2017-11-09T08:23:24.069Z,3.80
2017-11-09T08:24:27.697Z,4.80
2017-11-09T08:25:31.222Z,4.90
2017-11-09T08:26:34.253Z,4.10
2017-11-09T08:27:39.687Z,3.70
2017-11-09T08:28:46.750Z,4.60
2017-11-09T08:29:50.966Z,4.30
2017-11-09T08:30:52.912Z,4.28
2017-11-09T08:31:54.974Z,3.70
2017-11-09T08:32:58.051Z,3.67
2017-11-09T08:33:59.381Z,4.20
2017-11-09T08:35:00.712Z,3.90
2017-11-09T08:36:02.496Z,3.65
2017-11-09T08:37:03.838Z,3.85
2017-11-09T08:38:05.486Z,4.20
2017-11-09T08:39:06.821Z,4.40
2017-11-09T08:40:08.141Z,4.32
2017-11-09T08:41:09.450Z,3.97
2017-11-09T08:42:10.808Z,3.92
2017-11-09T08:43:12.424Z,4.47
2017-11-09T08:44:13.751Z,3.70
2017-11-09T08:45:15.821Z,3.85
2017-11-09T08:46:17.121Z,3.92
2017-11-09T08:47:18.442Z,3.70
2017-11-09T08:48:20.073Z,3.90
2017-11-09T08:49:21.390Z,3.50
2017-11-09T08:50:22.696Z,3.60
2017-11-09T08:51:24.750Z,3.80
2017-11-09T08:52:26.816Z,4.60
2017-11-09T08:53:28.184Z,7.60
2017-11-09T08:54:29.485Z,16.77
2017-11-09T08:55:31.553Z,22.83
2017-11-09T08:56:33.597Z,21.02
2017-11-09T08:57:35.661Z,13.05
2017-11-09T08:58:37.341Z,15.00
2017-11-09T08:59:38.655Z,9.00
2017-11-09T09:00:39.968Z,9.00
2017-11-09T09:01:42.020Z,8.75
2017-11-09T09:02:44.076Z,6.70
2017-11-09T09:03:47.536Z,5.43
2017-11-09T09:04:48.858Z,5.47
2017-11-09T09:05:50.174Z,5.67
2017-11-09T09:06:51.478Z,5.80
2017-11-09T09:07:52.809Z,6.07
2017-11-09T09:08:54.415Z,6.10
2017-11-09T09:09:55.756Z,3.67
2017-11-09T09:10:57.113Z,3.40
2017-11-09T09:11:58.449Z,2.00
2017-11-09T09:12:59.782Z,1.80
2017-11-09T09:14:01.329Z,1.43
2017-11-09T09:15:02.697Z,1.60
2017-11-09T09:16:05.010Z,1.13
2017-11-09T09:17:06.353Z,1.37
2017-11-09T09:18:08.436Z,1.43
2017-11-09T09:19:10.072Z,1.23
2017-11-09T09:20:11.413Z,1.20
2017-11-09T09:21:30.616Z,1.20
2017-11-09T09:22:37.050Z,1.17
2017-11-09T09:23:39.161Z,1.30
2017-11-09T09:24:41.311Z,1.23
2017-11-09T09:25:43.502Z,1.48
2017-11-09T09:26:45.839Z,1.20
2017-11-09T09:27:48.071Z,1.30
2017-11-09T09:28:52.321Z,1.23
2017-11-09T09:30:05.442Z,1.42
2017-11-09T09:31:08.717Z,1.12
2017-11-09T09:32:10.058Z,1.20
2017-11-09T09:33:14.105Z,1.08
2017-11-09T09:34:22.163Z,1.33
2017-11-09T09:35:39.738Z,1.33
2017-11-09T09:36:55.689Z,1.10
2017-11-09T09:38:04.518Z,1.25
2017-11-09T09:39:08.518Z,1.37
2017-11-09T09:40:12.033Z,1.50
2017-11-09T09:41:13.689Z,1.40
2017-11-09T09:42:15.047Z,1.60
2017-11-09T09:43:16.426Z,1.48
2017-11-09T09:44:17.771Z,1.42
2017-11-09T09:45:19.111Z,1.37
2017-11-09T09:46:20.523Z,1.37
2017-11-09T09:47:21.853Z,2.00
2017-11-09T09:48:23.199Z,1.98
2017-11-09T09:49:24.550Z,1.67
2017-11-09T09:50:26.633Z,1.37
2017-11-09T09:51:28.164Z,1.30
2017-11-09T09:52:29.466Z,1.25
2017-11-09T09:53:30.771Z,1.35
2017-11-09T09:54:32.124Z,1.50
2017-11-09T09:55:33.465Z,1.30
2017-11-09T09:56:34.815Z,1.30
2017-11-09T09:57:36.162Z,1.23
2017-11-09T09:58:38.229Z,1.20
2017-11-09T09:59:40.281Z,1.23
2017-11-09T10:00:42.357Z,1.33
2017-11-09T10:01:43.698Z,1.08
2017-11-09T10:02:45.009Z,1.40
2017-11-09T10:03:46.338Z,1.40
2017-11-09T10:04:47.710Z,1.20
2017-11-09T10:05:49.032Z,1.50
2017-11-09T10:06:50.938Z,1.52
2017-11-09T10:07:52.297Z,1.70
2017-11-09T10:08:54.416Z,1.90
2017-11-09T10:09:55.793Z,3.27
2017-11-09T10:10:57.102Z,2.67
2017-11-09T10:11:58.446Z,2.28
2017-11-09T10:12:59.764Z,2.00
2017-11-09T10:14:01.086Z,1.77
2017-11-09T10:15:02.459Z,1.77
2017-11-09T10:16:03.801Z,1.40
2017-11-09T10:17:05.457Z,1.40
2017-11-09T10:18:06.783Z,1.30
2017-11-09T10:19:08.118Z,1.70
2017-11-09T10:20:09.516Z,1.87
2017-11-09T10:21:11.567Z,1.40
2017-11-09T10:22:13.901Z,1.10
2017-11-09T10:23:15.209Z,1.50
2017-11-09T10:24:16.538Z,1.23
2017-11-09T10:25:17.838Z,1.17
2017-11-09T10:26:19.887Z,1.60
2017-11-09T10:27:21.240Z,1.62
2017-11-09T10:28:23.262Z,1.30
2017-11-09T10:29:24.598Z,1.20
2017-11-09T10:30:25.914Z,1.80
2017-11-09T10:31:27.259Z,1.45
2017-11-09T10:32:30.446Z,1.30
2017-11-09T10:33:31.762Z,1.73
2017-11-09T10:34:33.081Z,1.70
2017-11-09T10:35:34.399Z,1.67
2017-11-09T10:36:36.467Z,1.70
2017-11-09T10:37:38.555Z,2.50
2017-11-09T10:38:39.872Z,1.93
2017-11-09T10:39:41.235Z,1.70
2017-11-09T10:40:42.561Z,2.12
2017-11-09T10:41:43.862Z,1.70
2017-11-09T10:42:46.268Z,1.80
2017-11-09T10:43:47.593Z,2.10
2017-11-09T10:44:48.911Z,2.03
2017-11-09T10:45:50.974Z,1.95
2017-11-09T10:46:52.314Z,1.80
2017-11-09T10:47:53.672Z,1.80
2017-11-09T10:48:55.045Z,1.83
2017-11-09T10:49:56.393Z,1.83
2017-11-09T10:50:57.742Z,1.67
2017-11-09T10:51:59.089Z,1.67
2017-11-09T10:53:01.711Z,1.58
2017-11-09T10:54:03.062Z,2.05
2017-11-09T10:55:04.396Z,2.80
2017-11-09T10:56:05.728Z,3.55
2017-11-09T10:57:07.088Z,2.70
2017-11-09T10:58:08.457Z,2.10
2017-11-09T10:59:10.526Z,2.28
2017-11-09T11:00:11.877Z,1.77
2017-11-09T11:01:13.218Z,2.00
2017-11-09T11:02:16.528Z,1.75
2017-11-09T11:03:18.171Z,1.55
2017-11-09T11:04:20.221Z,1.98
2017-11-09T11:05:21.560Z,1.98
2017-11-09T11:06:22.881Z,1.50
2017-11-09T11:07:24.176Z,1.80
2017-11-09T11:08:26.598Z,1.62
2017-11-09T11:09:27.946Z,1.60
2017-11-09T11:10:29.998Z,1.85
2017-11-09T11:11:31.313Z,1.80
2017-11-09T11:12:32.614Z,2.00
2017-11-09T11:13:34.962Z,1.90
2017-11-09T11:14:36.276Z,2.10
2017-11-09T11:15:37.589Z,2.03
2017-11-09T11:16:38.892Z,1.83
2017-11-09T11:17:40.949Z,1.70
2017-11-09T11:18:42.298Z,1.65
2017-11-09T11:19:43.621Z,2.00
2017-11-09T11:20:45.678Z,1.73
2017-11-09T11:21:49.592Z,2.08
2017-11-09T11:22:50.933Z,2.00
2017-11-09T11:23:52.501Z,1.80
2017-11-09T11:24:53.813Z,2.53
2017-11-09T11:25:55.114Z,1.90
2017-11-09T11:26:56.437Z,1.80
2017-11-09T11:27:58.489Z,2.12
2017-11-09T11:29:00.117Z,1.83
2017-11-09T11:30:01.430Z,2.12
2017-11-09T11:31:02.777Z,2.00
2017-11-09T11:32:04.118Z,2.20
2017-11-09T11:33:05.444Z,2.20
2017-11-09T11:34:06.998Z,2.22
2017-11-09T11:35:08.335Z,2.85
2017-11-09T11:36:09.657Z,2.28
2017-11-09T11:37:12.954Z,3.20
2017-11-09T11:38:14.266Z,2.10
2017-11-09T11:39:16.590Z,1.95
2017-11-09T11:41:25.988Z,2.30
2017-11-09T11:42:27.317Z,2.10
2017-11-09T11:43:28.618Z,2.50
2017-11-09T11:44:30.220Z,2.20
2017-11-09T11:45:31.544Z,2.03
2017-11-09T11:46:32.858Z,2.37
2017-11-09T11:47:34.166Z,2.20
2017-11-09T11:48:35.479Z,2.87
2017-11-09T11:49:37.160Z,2.90
2017-11-09T11:50:38.461Z,4.05
2017-11-09T11:51:39.781Z,4.03
2017-11-09T11:52:41.086Z,5.07
2017-11-09T11:53:43.205Z,4.03
2017-11-09T11:54:44.819Z,5.80
2017-11-09T11:55:46.141Z,5.28
2017-11-09T11:56:47.482Z,4.82
2017-11-09T11:57:48.802Z,3.60
2017-11-09T11:58:50.851Z,3.28
2017-11-09T11:59:52.574Z,3.25
2017-11-09T12:00:53.904Z,2.85
2017-11-09T12:01:55.214Z,2.83
2017-11-09T12:02:58.321Z,3.10
2017-11-09T12:03:59.631Z,3.70
2017-11-09T12:05:01.294Z,2.85
2017-11-09T12:06:02.878Z,3.15
2017-11-09T12:07:04.682Z,4.80
2017-11-09T12:08:06.785Z,4.33
2017-11-09T12:09:12.466Z,4.45
2017-11-09T12:10:13.822Z,4.10
2017-11-09T12:11:15.137Z,4.43
2017-11-09T12:12:16.483Z,4.60
2017-11-09T12:13:17.807Z,4.17
2017-11-09T12:14:19.118Z,5.77
2017-11-09T12:15:21.212Z,4.28
2017-11-09T12:16:22.513Z,3.58
2017-11-09T12:17:24.569Z,2.65
2017-11-09T12:18:26.627Z,2.20
2017-11-09T12:19:28.673Z,2.25
2017-11-09T12:20:31.208Z,2.45
2017-11-09T12:21:32.538Z,2.22
2017-11-09T12:22:33.846Z,4.25
2017-11-09T12:23:35.159Z,3.00
2017-11-09T12:24:37.199Z,2.93
2017-11-09T12:25:38.544Z,3.50
2017-11-09T12:26:39.849Z,3.10
2017-11-09T12:27:41.921Z,3.00
2017-11-09T12:28:43.230Z,3.03
2017-11-09T12:29:44.565Z,3.20
2017-11-09T12:30:45.962Z,2.60
2017-11-09T12:31:48.082Z,2.60
2017-11-09T12:32:50.141Z,2.65
2017-11-09T12:33:51.451Z,2.50
2017-11-09T12:34:52.781Z,2.60
2017-11-09T12:35:54.441Z,2.73
2017-11-09T12:36:56.223Z,2.33
2017-11-09T12:37:58.310Z,2.90
2017-11-09T12:39:00.378Z,2.00
2017-11-09T12:40:01.678Z,2.58
2017-11-09T12:41:03.207Z,2.40
2017-11-09T12:42:04.523Z,2.58
2017-11-09T12:43:05.855Z,2.55
2017-11-09T12:44:07.217Z,2.47
2017-11-09T12:45:08.533Z,2.70
2017-11-09T12:46:10.306Z,2.50
2017-11-09T12:47:12.401Z,2.78
2017-11-09T12:48:14.485Z,2.83
2017-11-09T12:49:15.821Z,2.92
2017-11-09T12:50:17.130Z,2.10
2017-11-09T12:51:19.673Z,2.37
2017-11-09T12:52:20.985Z,2.22
2017-11-09T12:53:22.289Z,2.10
2017-11-09T12:54:23.625Z,2.50
2017-11-09T12:55:24.930Z,2.80
2017-11-09T12:56:26.744Z,2.50
2017-11-09T12:57:28.082Z,2.30
2017-11-09T12:58:29.410Z,2.33
2017-11-09T12:59:30.762Z,2.75
2017-11-09T13:00:32.118Z,2.55
2017-11-09T13:01:33.456Z,2.80
2017-11-09T13:02:34.774Z,2.80
2017-11-09T13:03:36.209Z,2.67
2017-11-09T13:04:38.334Z,2.78
2017-11-09T13:05:39.681Z,3.20
2017-11-09T13:06:41.354Z,2.95
2017-11-09T13:07:42.675Z,3.03
2017-11-09T13:08:43.975Z,2.67
2017-11-09T13:09:46.017Z,2.72
2017-11-09T13:10:47.341Z,4.55
2017-11-09T13:11:49.010Z,3.67
2017-11-09T13:12:51.070Z,4.47
2017-11-09T13:13:53.146Z,4.05
2017-11-09T13:14:54.489Z,3.72
2017-11-09T13:15:55.829Z,3.60
2017-11-09T13:16:57.298Z,4.12
2017-11-09T13:18:01.640Z,5.50
2017-11-09T13:19:02.980Z,4.50
2017-11-09T13:20:04.350Z,4.22
2017-11-09T13:21:05.685Z,4.10
2017-11-09T13:22:08.084Z,2.87
2017-11-09T13:23:09.401Z,3.20
2017-11-09T13:24:10.739Z,2.33
2017-11-09T13:25:12.183Z,2.58
2017-11-09T13:26:13.494Z,2.37
2017-11-09T13:27:15.857Z,3.00
2017-11-09T13:28:17.901Z,2.90
2017-11-09T13:29:19.971Z,3.08
2017-11-09T13:30:22.045Z,2.40
2017-11-09T13:31:23.386Z,2.77
2017-11-09T13:32:25.019Z,3.10
2017-11-09T13:33:26.317Z,2.83
2017-11-09T13:34:31.508Z,3.63
2017-11-09T13:35:32.832Z,8.93
2017-11-09T13:36:34.134Z,19.47
2017-11-09T13:37:35.484Z,16.50
2017-11-09T13:38:37.555Z,6.93
2017-11-09T13:39:38.853Z,4.13
2017-11-09T13:40:40.150Z,3.27
2017-11-09T13:41:41.479Z,4.60
2017-11-09T13:42:42.843Z,4.87
2017-11-09T13:43:44.908Z,7.33